sensor_id;sensor_type;location;lat;lon;timestamp;temperature;humidity
15900;DHT22;8048;50.644;6.184;2024-02-21T00:00:15;6.80;99.90
15900;DHT22;8048;50.644;6.184;2024-02-21T00:02:41;6.80;99.90
15900;DHT22;8048;50.644;6.184;2024-02-21T00:05:07;6.80;99.90
15900;DHT22;8048;50.644;6.184;2024-02-21T00:07:32;6.80;99.90
15900;DHT22;8048;50.644;6.184;2024-02-21T00:09:58;6.90;99.90
15900;DHT22;8048;50.644;6.184;2024-02-21T00:12:23;6.80;99.90
15900;DHT22;8048;50.644;6.184;2024-02-21T00:14:49;6.90;99.90
15900;DHT22;8048;50.644;6.184;2024-02-21T00:17:15;6.80;99.90
15900;DHT22;8048;50.644;6.184;2024-02-21T00:19:40;6.90;99.90
15900;DHT22;8048;50.644;6.184;2024-02-21T00:22:06;6.90;99.90
15900;DHT22;8048;50.644;6.184;2024-02-21T00:24:32;6.90;99.90
15900;DHT22;8048;50.644;6.184;2024-02-21T00:26:57;6.90;99.90
15900;DHT22;8048;50.644;6.184;2024-02-21T00:29:23;6.90;99.90
15900;DHT22;8048;50.644;6.184;2024-02-21T00:31:49;6.90;99.90
15900;DHT22;8048;50.644;6.184;2024-02-21T00:34:15;6.90;99.90
15900;DHT22;8048;50.644;6.184;2024-02-21T00:36:40;6.90;99.90
15900;DHT22;8048;50.644;6.184;2024-02-21T00:39:06;6.80;99.90
15900;DHT22;8048;50.644;6.184;2024-02-21T00:41:31;6.90;99.90
15900;DHT22;8048;50.644;6.184;2024-02-21T00:43:57;6.90;99.90
15900;DHT22;8048;50.644;6.184;2024-02-21T00:46:23;6.90;99.90
15900;DHT22;8048;50.644;6.184;2024-02-21T00:48:48;6.90;99.90
15900;DHT22;8048;50.644;6.184;2024-02-21T00:51:15;6.90;99.90
15900;DHT22;8048;50.644;6.184;2024-02-21T00:53:41;6.90;99.90
15900;DHT22;8048;50.644;6.184;2024-02-21T00:56:07;6.90;99.90
15900;DHT22;8048;50.644;6.184;2024-02-21T00:58:32;6.90;99.90
15900;DHT22;8048;50.644;6.184;2024-02-21T01:00:58;6.90;99.90
15900;DHT22;8048;50.644;6.184;2024-02-21T01:03:24;6.90;99.90
15900;DHT22;8048;50.644;6.184;2024-02-21T01:05:49;6.90;99.90
15900;DHT22;8048;50.644;6.184;2024-02-21T01:08:15;6.90;99.90
15900;DHT22;8048;50.644;6.184;2024-02-21T01:10:40;6.90;99.90
15900;DHT22;8048;50.644;6.184;2024-02-21T01:13:06;6.80;99.90
15900;DHT22;8048;50.644;6.184;2024-02-21T01:15:32;6.80;99.90
15900;DHT22;8048;50.644;6.184;2024-02-21T01:17:58;6.90;99.90
15900;DHT22;8048;50.644;6.184;2024-02-21T01:20:24;6.90;99.90
15900;DHT22;8048;50.644;6.184;2024-02-21T01:22:49;6.90;99.90
15900;DHT22;8048;50.644;6.184;2024-02-21T01:25:15;6.90;99.90
15900;DHT22;8048;50.644;6.184;2024-02-21T01:27:41;6.90;99.90
15900;DHT22;8048;50.644;6.184;2024-02-21T01:30:07;6.90;99.90
15900;DHT22;8048;50.644;6.184;2024-02-21T01:32:33;6.90;99.90
15900;DHT22;8048;50.644;6.184;2024-02-21T01:34:59;7.00;99.90
15900;DHT22;8048;50.644;6.184;2024-02-21T01:37:24;6.90;99.90
15900;DHT22;8048;50.644;6.184;2024-02-21T01:39:50;6.90;99.90
15900;DHT22;8048;50.644;6.184;2024-02-21T01:42:16;6.90;99.90
15900;DHT22;8048;50.644;6.184;2024-02-21T01:44:41;6.90;99.90
15900;DHT22;8048;50.644;6.184;2024-02-21T01:47:07;6.90;99.90
15900;DHT22;8048;50.644;6.184;2024-02-21T01:49:33;6.90;99.90
15900;DHT22;8048;50.644;6.184;2024-02-21T01:51:59;6.90;99.90
15900;DHT22;8048;50.644;6.184;2024-02-21T01:54:26;6.90;99.90
15900;DHT22;8048;50.644;6.184;2024-02-21T01:56:54;6.80;99.90
15900;DHT22;8048;50.644;6.184;2024-02-21T01:59:21;6.90;99.90
15900;DHT22;8048;50.644;6.184;2024-02-21T02:01:47;6.90;99.90
15900;DHT22;8048;50.644;6.184;2024-02-21T02:04:13;6.90;99.90
15900;DHT22;8048;50.644;6.184;2024-02-21T02:06:40;6.90;99.90
15900;DHT22;8048;50.644;6.184;2024-02-21T02:09:06;6.90;99.90
15900;DHT22;8048;50.644;6.184;2024-02-21T02:11:33;6.80;99.90
15900;DHT22;8048;50.644;6.184;2024-02-21T02:13:58;6.80;99.90
15900;DHT22;8048;50.644;6.184;2024-02-21T02:16:24;6.90;99.90
15900;DHT22;8048;50.644;6.184;2024-02-21T02:18:49;6.90;99.90
15900;DHT22;8048;50.644;6.184;2024-02-21T02:21:24;6.90;99.90
15900;DHT22;8048;50.644;6.184;2024-02-21T02:23:52;6.90;99.90
15900;DHT22;8048;50.644;6.184;2024-02-21T02:26:18;6.90;99.90
15900;DHT22;8048;50.644;6.184;2024-02-21T02:28:49;7.90;99.90
15900;DHT22;8048;50.644;6.184;2024-02-21T02:31:15;6.90;99.90
15900;DHT22;8048;50.644;6.184;2024-02-21T02:33:42;6.90;99.90
15900;DHT22;8048;50.644;6.184;2024-02-21T02:36:09;6.90;99.90
15900;DHT22;8048;50.644;6.184;2024-02-21T02:38:35;6.80;99.90
15900;DHT22;8048;50.644;6.184;2024-02-21T02:41:01;6.90;99.90
15900;DHT22;8048;50.644;6.184;2024-02-21T02:43:26;6.90;99.90
15900;DHT22;8048;50.644;6.184;2024-02-21T02:45:52;6.90;99.90
15900;DHT22;8048;50.644;6.184;2024-02-21T02:48:17;6.90;99.90
15900;DHT22;8048;50.644;6.184;2024-02-21T02:50:45;6.90;99.90
15900;DHT22;8048;50.644;6.184;2024-02-21T02:53:11;6.80;99.90
15900;DHT22;8048;50.644;6.184;2024-02-21T02:55:36;6.80;99.90
15900;DHT22;8048;50.644;6.184;2024-02-21T02:58:02;6.80;99.90
15900;DHT22;8048;50.644;6.184;2024-02-21T03:00:28;6.80;99.90
15900;DHT22;8048;50.644;6.184;2024-02-21T03:02:54;6.80;99.90
15900;DHT22;8048;50.644;6.184;2024-02-21T03:05:20;6.80;99.90
15900;DHT22;8048;50.644;6.184;2024-02-21T03:07:46;6.80;99.90
15900;DHT22;8048;50.644;6.184;2024-02-21T03:10:13;6.80;99.90
15900;DHT22;8048;50.644;6.184;2024-02-21T03:12:39;6.70;99.90
15900;DHT22;8048;50.644;6.184;2024-02-21T03:15:05;6.70;99.90
15900;DHT22;8048;50.644;6.184;2024-02-21T03:17:31;6.70;99.90
15900;DHT22;8048;50.644;6.184;2024-02-21T03:19:58;6.70;99.90
15900;DHT22;8048;50.644;6.184;2024-02-21T03:22:25;6.70;99.90
15900;DHT22;8048;50.644;6.184;2024-02-21T03:24:50;6.70;99.90
15900;DHT22;8048;50.644;6.184;2024-02-21T03:27:16;6.70;99.90
15900;DHT22;8048;50.644;6.184;2024-02-21T03:29:42;6.70;99.90
15900;DHT22;8048;50.644;6.184;2024-02-21T03:32:08;6.70;99.90
15900;DHT22;8048;50.644;6.184;2024-02-21T03:34:33;6.70;99.90
15900;DHT22;8048;50.644;6.184;2024-02-21T03:36:59;6.70;99.90
15900;DHT22;8048;50.644;6.184;2024-02-21T03:39:25;6.70;99.90
15900;DHT22;8048;50.644;6.184;2024-02-21T03:41:51;6.70;99.90
15900;DHT22;8048;50.644;6.184;2024-02-21T03:44:17;6.70;99.90
15900;DHT22;8048;50.644;6.184;2024-02-21T03:46:42;6.70;99.90
15900;DHT22;8048;50.644;6.184;2024-02-21T03:49:08;6.80;99.90
15900;DHT22;8048;50.644;6.184;2024-02-21T03:51:34;6.80;99.90
15900;DHT22;8048;50.644;6.184;2024-02-21T03:53:59;6.80;99.90
15900;DHT22;8048;50.644;6.184;2024-02-21T03:56:25;6.80;99.90
15900;DHT22;8048;50.644;6.184;2024-02-21T03:58:50;6.80;99.90
15900;DHT22;8048;50.644;6.184;2024-02-21T04:01:16;6.80;99.90
15900;DHT22;8048;50.644;6.184;2024-02-21T04:03:43;6.80;99.90
15900;DHT22;8048;50.644;6.184;2024-02-21T04:06:09;6.80;99.90
15900;DHT22;8048;50.644;6.184;2024-02-21T04:08:35;6.80;99.90
15900;DHT22;8048;50.644;6.184;2024-02-21T04:11:00;6.80;99.90
15900;DHT22;8048;50.644;6.184;2024-02-21T04:13:26;6.80;99.90
15900;DHT22;8048;50.644;6.184;2024-02-21T04:15:52;6.80;99.90
15900;DHT22;8048;50.644;6.184;2024-02-21T04:18:17;6.80;99.90
15900;DHT22;8048;50.644;6.184;2024-02-21T04:20:43;6.80;99.90
15900;DHT22;8048;50.644;6.184;2024-02-21T04:23:09;6.80;99.90
15900;DHT22;8048;50.644;6.184;2024-02-21T04:25:34;6.80;99.90
15900;DHT22;8048;50.644;6.184;2024-02-21T04:28:00;6.80;99.90
15900;DHT22;8048;50.644;6.184;2024-02-21T04:30:26;6.80;99.90
15900;DHT22;8048;50.644;6.184;2024-02-21T04:32:51;6.80;99.90
15900;DHT22;8048;50.644;6.184;2024-02-21T04:35:17;6.80;99.90
15900;DHT22;8048;50.644;6.184;2024-02-21T04:37:42;6.80;99.90
15900;DHT22;8048;50.644;6.184;2024-02-21T04:40:08;6.80;99.90
15900;DHT22;8048;50.644;6.184;2024-02-21T04:42:34;6.90;99.90
15900;DHT22;8048;50.644;6.184;2024-02-21T04:45:00;6.80;99.90
15900;DHT22;8048;50.644;6.184;2024-02-21T04:47:26;6.80;99.90
15900;DHT22;8048;50.644;6.184;2024-02-21T04:49:52;6.80;99.90
15900;DHT22;8048;50.644;6.184;2024-02-21T04:52:18;6.80;99.90
15900;DHT22;8048;50.644;6.184;2024-02-21T04:54:44;6.80;99.90
15900;DHT22;8048;50.644;6.184;2024-02-21T04:57:09;6.80;99.90
15900;DHT22;8048;50.644;6.184;2024-02-21T04:59:35;6.80;99.90
15900;DHT22;8048;50.644;6.184;2024-02-21T05:02:01;6.80;99.90
15900;DHT22;8048;50.644;6.184;2024-02-21T05:04:27;6.80;99.90
15900;DHT22;8048;50.644;6.184;2024-02-21T05:06:53;6.70;99.90
15900;DHT22;8048;50.644;6.184;2024-02-21T05:09:18;6.70;99.90
15900;DHT22;8048;50.644;6.184;2024-02-21T05:11:44;6.80;99.90
15900;DHT22;8048;50.644;6.184;2024-02-21T05:14:09;6.70;99.90
15900;DHT22;8048;50.644;6.184;2024-02-21T05:16:35;6.70;99.90
15900;DHT22;8048;50.644;6.184;2024-02-21T05:19:01;6.70;99.90
15900;DHT22;8048;50.644;6.184;2024-02-21T05:21:26;6.60;99.90
15900;DHT22;8048;50.644;6.184;2024-02-21T05:23:53;6.70;99.90
15900;DHT22;8048;50.644;6.184;2024-02-21T05:26:26;6.70;99.90
15900;DHT22;8048;50.644;6.184;2024-02-21T05:28:52;6.70;99.90
15900;DHT22;8048;50.644;6.184;2024-02-21T05:31:18;6.70;99.90
15900;DHT22;8048;50.644;6.184;2024-02-21T05:33:44;6.70;99.90
15900;DHT22;8048;50.644;6.184;2024-02-21T05:36:10;6.70;99.90
15900;DHT22;8048;50.644;6.184;2024-02-21T05:38:36;6.70;99.90
15900;DHT22;8048;50.644;6.184;2024-02-21T05:41:02;6.70;99.90
15900;DHT22;8048;50.644;6.184;2024-02-21T05:43:28;6.70;99.90
15900;DHT22;8048;50.644;6.184;2024-02-21T05:45:54;6.70;99.90
15900;DHT22;8048;50.644;6.184;2024-02-21T05:48:20;6.70;99.90
15900;DHT22;8048;50.644;6.184;2024-02-21T05:50:45;6.60;99.90
15900;DHT22;8048;50.644;6.184;2024-02-21T05:53:11;6.60;99.90
15900;DHT22;8048;50.644;6.184;2024-02-21T05:55:38;6.50;99.90
15900;DHT22;8048;50.644;6.184;2024-02-21T05:58:04;6.50;99.90
15900;DHT22;8048;50.644;6.184;2024-02-21T06:00:29;6.60;99.90
15900;DHT22;8048;50.644;6.184;2024-02-21T06:02:55;6.60;99.90
15900;DHT22;8048;50.644;6.184;2024-02-21T06:05:21;6.50;99.90
15900;DHT22;8048;50.644;6.184;2024-02-21T06:07:46;6.50;99.90
15900;DHT22;8048;50.644;6.184;2024-02-21T06:10:12;6.50;99.90
15900;DHT22;8048;50.644;6.184;2024-02-21T06:12:38;6.50;99.90
15900;DHT22;8048;50.644;6.184;2024-02-21T06:15:03;6.50;99.90
15900;DHT22;8048;50.644;6.184;2024-02-21T06:17:29;6.50;99.90
15900;DHT22;8048;50.644;6.184;2024-02-21T06:19:55;6.50;99.90
15900;DHT22;8048;50.644;6.184;2024-02-21T06:22:20;6.50;99.90
15900;DHT22;8048;50.644;6.184;2024-02-21T06:24:46;6.50;99.90
15900;DHT22;8048;50.644;6.184;2024-02-21T06:27:11;6.50;99.90
15900;DHT22;8048;50.644;6.184;2024-02-21T06:29:37;6.50;99.90
15900;DHT22;8048;50.644;6.184;2024-02-21T06:32:03;6.50;99.90
15900;DHT22;8048;50.644;6.184;2024-02-21T06:34:29;6.50;99.90
15900;DHT22;8048;50.644;6.184;2024-02-21T06:36:55;6.50;99.90
15900;DHT22;8048;50.644;6.184;2024-02-21T06:39:20;6.50;99.90
15900;DHT22;8048;50.644;6.184;2024-02-21T06:41:48;6.50;99.90
15900;DHT22;8048;50.644;6.184;2024-02-21T06:44:16;6.40;99.90
15900;DHT22;8048;50.644;6.184;2024-02-21T06:46:41;6.40;99.90
15900;DHT22;8048;50.644;6.184;2024-02-21T06:49:07;6.40;99.90
15900;DHT22;8048;50.644;6.184;2024-02-21T06:51:33;6.40;99.90
15900;DHT22;8048;50.644;6.184;2024-02-21T06:53:59;6.30;99.90
15900;DHT22;8048;50.644;6.184;2024-02-21T06:56:25;6.40;99.90
15900;DHT22;8048;50.644;6.184;2024-02-21T06:58:54;6.40;99.90
15900;DHT22;8048;50.644;6.184;2024-02-21T07:01:20;6.40;99.90
15900;DHT22;8048;50.644;6.184;2024-02-21T07:03:46;6.40;99.90
15900;DHT22;8048;50.644;6.184;2024-02-21T07:06:11;6.30;99.90
15900;DHT22;8048;50.644;6.184;2024-02-21T07:08:38;6.40;99.90
15900;DHT22;8048;50.644;6.184;2024-02-21T07:11:04;6.40;99.90
15900;DHT22;8048;50.644;6.184;2024-02-21T07:13:30;6.40;99.90
15900;DHT22;8048;50.644;6.184;2024-02-21T07:15:56;6.40;99.90
15900;DHT22;8048;50.644;6.184;2024-02-21T07:18:21;6.30;99.90
15900;DHT22;8048;50.644;6.184;2024-02-21T07:20:47;6.30;99.90
15900;DHT22;8048;50.644;6.184;2024-02-21T07:23:12;6.30;99.90
15900;DHT22;8048;50.644;6.184;2024-02-21T07:25:39;6.20;99.90
15900;DHT22;8048;50.644;6.184;2024-02-21T07:28:05;6.30;99.90
15900;DHT22;8048;50.644;6.184;2024-02-21T07:30:31;6.20;99.90
15900;DHT22;8048;50.644;6.184;2024-02-21T07:32:56;6.20;99.90
15900;DHT22;8048;50.644;6.184;2024-02-21T07:35:22;6.20;99.90
15900;DHT22;8048;50.644;6.184;2024-02-21T07:37:47;6.30;99.90
15900;DHT22;8048;50.644;6.184;2024-02-21T07:40:16;6.30;99.90
15900;DHT22;8048;50.644;6.184;2024-02-21T07:42:43;6.30;99.90
15900;DHT22;8048;50.644;6.184;2024-02-21T07:45:08;6.30;99.90
15900;DHT22;8048;50.644;6.184;2024-02-21T07:47:35;6.30;99.90
15900;DHT22;8048;50.644;6.184;2024-02-21T07:50:04;6.40;99.90
15900;DHT22;8048;50.644;6.184;2024-02-21T07:52:30;6.30;99.90
15900;DHT22;8048;50.644;6.184;2024-02-21T07:54:56;6.20;99.90
15900;DHT22;8048;50.644;6.184;2024-02-21T07:57:21;6.20;99.90
15900;DHT22;8048;50.644;6.184;2024-02-21T07:59:47;6.20;99.90
15900;DHT22;8048;50.644;6.184;2024-02-21T08:02:14;6.30;99.90
15900;DHT22;8048;50.644;6.184;2024-02-21T08:04:39;6.30;99.90
15900;DHT22;8048;50.644;6.184;2024-02-21T08:07:05;6.30;99.90
15900;DHT22;8048;50.644;6.184;2024-02-21T08:09:31;6.30;99.90
15900;DHT22;8048;50.644;6.184;2024-02-21T08:11:57;6.30;99.90
15900;DHT22;8048;50.644;6.184;2024-02-21T08:14:22;6.30;99.90
15900;DHT22;8048;50.644;6.184;2024-02-21T08:16:50;6.30;99.90
15900;DHT22;8048;50.644;6.184;2024-02-21T08:19:16;6.40;99.90
15900;DHT22;8048;50.644;6.184;2024-02-21T08:21:42;6.40;99.90
15900;DHT22;8048;50.644;6.184;2024-02-21T08:24:08;6.40;99.90
15900;DHT22;8048;50.644;6.184;2024-02-21T08:26:33;6.50;99.90
15900;DHT22;8048;50.644;6.184;2024-02-21T08:28:59;6.50;99.90
15900;DHT22;8048;50.644;6.184;2024-02-21T08:31:26;6.50;99.90
15900;DHT22;8048;50.644;6.184;2024-02-21T08:34:00;6.60;99.90
15900;DHT22;8048;50.644;6.184;2024-02-21T08:36:36;6.50;99.90
15900;DHT22;8048;50.644;6.184;2024-02-21T08:39:02;6.50;99.90
15900;DHT22;8048;50.644;6.184;2024-02-21T08:41:33;6.50;99.90
15900;DHT22;8048;50.644;6.184;2024-02-21T08:43:59;6.50;99.90
15900;DHT22;8048;50.644;6.184;2024-02-21T08:46:25;6.60;99.90
15900;DHT22;8048;50.644;6.184;2024-02-21T08:48:52;6.60;99.90
15900;DHT22;8048;50.644;6.184;2024-02-21T08:51:18;6.60;99.90
15900;DHT22;8048;50.644;6.184;2024-02-21T08:53:44;6.60;99.90
15900;DHT22;8048;50.644;6.184;2024-02-21T08:56:10;6.60;99.90
15900;DHT22;8048;50.644;6.184;2024-02-21T08:58:36;6.60;99.90
15900;DHT22;8048;50.644;6.184;2024-02-21T09:01:05;6.60;99.90
15900;DHT22;8048;50.644;6.184;2024-02-21T09:03:32;6.70;99.90
15900;DHT22;8048;50.644;6.184;2024-02-21T09:05:58;6.80;99.90
15900;DHT22;8048;50.644;6.184;2024-02-21T09:08:24;6.70;99.90
15900;DHT22;8048;50.644;6.184;2024-02-21T09:10:50;6.80;99.90
15900;DHT22;8048;50.644;6.184;2024-02-21T09:13:16;6.80;99.90
15900;DHT22;8048;50.644;6.184;2024-02-21T09:15:42;6.80;99.90
15900;DHT22;8048;50.644;6.184;2024-02-21T09:18:08;6.90;99.90
15900;DHT22;8048;50.644;6.184;2024-02-21T09:20:33;7.00;99.90
15900;DHT22;8048;50.644;6.184;2024-02-21T09:22:59;7.00;99.90
15900;DHT22;8048;50.644;6.184;2024-02-21T09:25:25;7.00;99.90
15900;DHT22;8048;50.644;6.184;2024-02-21T09:27:50;7.00;99.90
15900;DHT22;8048;50.644;6.184;2024-02-21T09:30:17;7.10;99.90
15900;DHT22;8048;50.644;6.184;2024-02-21T09:32:44;7.10;99.90
15900;DHT22;8048;50.644;6.184;2024-02-21T09:35:10;7.10;99.90
15900;DHT22;8048;50.644;6.184;2024-02-21T09:37:36;7.10;99.90
15900;DHT22;8048;50.644;6.184;2024-02-21T09:40:01;7.20;99.90
15900;DHT22;8048;50.644;6.184;2024-02-21T09:42:47;7.20;99.90
15900;DHT22;8048;50.644;6.184;2024-02-21T09:45:23;7.30;99.90
15900;DHT22;8048;50.644;6.184;2024-02-21T09:48:29;7.30;99.90
15900;DHT22;8048;50.644;6.184;2024-02-21T09:51:01;7.30;99.90
15900;DHT22;8048;50.644;6.184;2024-02-21T09:53:27;7.40;99.90
15900;DHT22;8048;50.644;6.184;2024-02-21T09:55:55;7.40;99.90
15900;DHT22;8048;50.644;6.184;2024-02-21T09:58:22;7.40;99.90
15900;DHT22;8048;50.644;6.184;2024-02-21T10:00:49;7.40;99.90
15900;DHT22;8048;50.644;6.184;2024-02-21T10:03:15;7.40;99.90
15900;DHT22;8048;50.644;6.184;2024-02-21T10:05:47;7.50;99.90
15900;DHT22;8048;50.644;6.184;2024-02-21T10:08:16;7.50;99.90
15900;DHT22;8048;50.644;6.184;2024-02-21T10:10:43;7.50;99.90
15900;DHT22;8048;50.644;6.184;2024-02-21T10:13:10;7.60;99.90
15900;DHT22;8048;50.644;6.184;2024-02-21T10:15:36;7.60;99.90
15900;DHT22;8048;50.644;6.184;2024-02-21T10:18:02;7.60;99.90
15900;DHT22;8048;50.644;6.184;2024-02-21T10:20:29;7.60;99.90
15900;DHT22;8048;50.644;6.184;2024-02-21T10:23:02;7.70;99.90
15900;DHT22;8048;50.644;6.184;2024-02-21T10:25:37;7.70;99.90
15900;DHT22;8048;50.644;6.184;2024-02-21T10:28:14;7.80;99.90
15900;DHT22;8048;50.644;6.184;2024-02-21T10:30:50;7.90;99.90
15900;DHT22;8048;50.644;6.184;2024-02-21T10:33:16;8.00;99.90
15900;DHT22;8048;50.644;6.184;2024-02-21T10:35:46;8.00;99.90
15900;DHT22;8048;50.644;6.184;2024-02-21T10:38:12;8.00;99.90
15900;DHT22;8048;50.644;6.184;2024-02-21T10:40:38;7.90;99.90
15900;DHT22;8048;50.644;6.184;2024-02-21T10:43:06;8.00;99.90
15900;DHT22;8048;50.644;6.184;2024-02-21T10:45:35;8.00;99.90
15900;DHT22;8048;50.644;6.184;2024-02-21T10:48:15;8.10;99.90
15900;DHT22;8048;50.644;6.184;2024-02-21T10:50:57;8.10;99.90
15900;DHT22;8048;50.644;6.184;2024-02-21T10:58:42;8.40;99.90
15900;DHT22;8048;50.644;6.184;2024-02-21T11:01:09;8.50;99.90
15900;DHT22;8048;50.644;6.184;2024-02-21T11:03:37;8.50;99.90
15900;DHT22;8048;50.644;6.184;2024-02-21T11:06:03;8.50;99.90
15900;DHT22;8048;50.644;6.184;2024-02-21T11:08:30;8.50;99.90
15900;DHT22;8048;50.644;6.184;2024-02-21T11:10:59;8.50;99.90
15900;DHT22;8048;50.644;6.184;2024-02-21T11:13:34;8.50;99.90
15900;DHT22;8048;50.644;6.184;2024-02-21T11:16:27;8.50;99.90
15900;DHT22;8048;50.644;6.184;2024-02-21T11:18:52;8.60;99.90
15900;DHT22;8048;50.644;6.184;2024-02-21T11:21:35;8.50;99.90
15900;DHT22;8048;50.644;6.184;2024-02-21T11:24:02;8.60;99.90
15900;DHT22;8048;50.644;6.184;2024-02-21T11:26:29;8.50;99.90
15900;DHT22;8048;50.644;6.184;2024-02-21T11:28:58;8.50;99.90
15900;DHT22;8048;50.644;6.184;2024-02-21T11:31:25;8.50;99.90
15900;DHT22;8048;50.644;6.184;2024-02-21T11:33:53;8.60;99.90
15900;DHT22;8048;50.644;6.184;2024-02-21T11:36:25;8.60;99.90
15900;DHT22;8048;50.644;6.184;2024-02-21T11:38:52;8.70;99.90
15900;DHT22;8048;50.644;6.184;2024-02-21T11:41:19;8.60;99.90
15900;DHT22;8048;50.644;6.184;2024-02-21T11:43:46;8.60;99.90
15900;DHT22;8048;50.644;6.184;2024-02-21T11:46:14;8.60;99.90
15900;DHT22;8048;50.644;6.184;2024-02-21T11:48:41;8.70;99.90
15900;DHT22;8048;50.644;6.184;2024-02-21T11:51:06;8.70;99.90
15900;DHT22;8048;50.644;6.184;2024-02-21T11:53:32;8.70;99.90
15900;DHT22;8048;50.644;6.184;2024-02-21T11:55:58;8.70;99.90
15900;DHT22;8048;50.644;6.184;2024-02-21T11:58:24;8.70;99.90
15900;DHT22;8048;50.644;6.184;2024-02-21T12:00:50;8.60;99.90
15900;DHT22;8048;50.644;6.184;2024-02-21T12:03:17;8.70;99.90
15900;DHT22;8048;50.644;6.184;2024-02-21T12:05:42;8.70;99.90
15900;DHT22;8048;50.644;6.184;2024-02-21T12:08:08;8.70;99.90
15900;DHT22;8048;50.644;6.184;2024-02-21T12:10:35;8.80;99.90
15900;DHT22;8048;50.644;6.184;2024-02-21T12:13:08;8.90;99.90
15900;DHT22;8048;50.644;6.184;2024-02-21T12:15:34;8.90;99.90
15900;DHT22;8048;50.644;6.184;2024-02-21T12:18:00;8.90;99.90
15900;DHT22;8048;50.644;6.184;2024-02-21T12:20:26;9.00;99.80
15900;DHT22;8048;50.644;6.184;2024-02-21T12:22:52;9.10;99.90
15900;DHT22;8048;50.644;6.184;2024-02-21T12:25:21;9.20;99.30
15900;DHT22;8048;50.644;6.184;2024-02-21T12:27:52;9.30;98.70
15900;DHT22;8048;50.644;6.184;2024-02-21T12:30:18;9.40;98.20
15900;DHT22;8048;50.644;6.184;2024-02-21T12:32:45;9.50;98.70
15900;DHT22;8048;50.644;6.184;2024-02-21T12:35:11;9.60;98.10
15900;DHT22;8048;50.644;6.184;2024-02-21T12:37:36;9.70;98.30
15900;DHT22;8048;50.644;6.184;2024-02-21T12:40:07;9.90;97.70
15900;DHT22;8048;50.644;6.184;2024-02-21T12:42:33;9.90;97.90
15900;DHT22;8048;50.644;6.184;2024-02-21T12:44:59;10.00;97.50
15900;DHT22;8048;50.644;6.184;2024-02-21T12:47:25;10.10;97.50
15900;DHT22;8048;50.644;6.184;2024-02-21T12:49:52;10.20;97.20
15900;DHT22;8048;50.644;6.184;2024-02-21T12:52:18;10.30;97.10
15900;DHT22;8048;50.644;6.184;2024-02-21T12:54:44;10.60;98.20
15900;DHT22;8048;50.644;6.184;2024-02-21T12:57:10;10.90;97.90
15900;DHT22;8048;50.644;6.184;2024-02-21T12:59:35;11.10;96.30
15900;DHT22;8048;50.644;6.184;2024-02-21T13:02:01;11.20;96.40
15900;DHT22;8048;50.644;6.184;2024-02-21T13:04:26;11.30;95.40
15900;DHT22;8048;50.644;6.184;2024-02-21T13:06:52;11.40;96.00
15900;DHT22;8048;50.644;6.184;2024-02-21T13:09:18;11.30;95.10
15900;DHT22;8048;50.644;6.184;2024-02-21T13:11:44;11.40;95.70
15900;DHT22;8048;50.644;6.184;2024-02-21T13:14:11;11.40;94.90
15900;DHT22;8048;50.644;6.184;2024-02-21T13:16:37;11.30;94.50
15900;DHT22;8048;50.644;6.184;2024-02-21T13:19:08;11.20;95.40
15900;DHT22;8048;50.644;6.184;2024-02-21T13:21:34;11.10;95.80
15900;DHT22;8048;50.644;6.184;2024-02-21T13:24:00;10.90;95.30
15900;DHT22;8048;50.644;6.184;2024-02-21T13:26:26;10.80;95.60
15900;DHT22;8048;50.644;6.184;2024-02-21T13:28:52;10.60;95.00
15900;DHT22;8048;50.644;6.184;2024-02-21T13:31:18;10.60;95.80
15900;DHT22;8048;50.644;6.184;2024-02-21T13:33:43;10.60;95.90
15900;DHT22;8048;50.644;6.184;2024-02-21T13:36:12;10.60;95.90
15900;DHT22;8048;50.644;6.184;2024-02-21T13:38:38;10.40;94.90
15900;DHT22;8048;50.644;6.184;2024-02-21T13:41:05;10.20;95.20
15900;DHT22;8048;50.644;6.184;2024-02-21T13:43:31;9.90;95.80
15900;DHT22;8048;50.644;6.184;2024-02-21T13:45:58;9.80;97.00
15900;DHT22;8048;50.644;6.184;2024-02-21T13:48:24;9.80;97.00
15900;DHT22;8048;50.644;6.184;2024-02-21T13:50:50;9.80;96.70
15900;DHT22;8048;50.644;6.184;2024-02-21T13:53:16;9.70;96.70
15900;DHT22;8048;50.644;6.184;2024-02-21T13:55:44;9.70;96.30
15900;DHT22;8048;50.644;6.184;2024-02-21T13:58:10;9.70;96.50
15900;DHT22;8048;50.644;6.184;2024-02-21T14:00:35;9.60;96.80
15900;DHT22;8048;50.644;6.184;2024-02-21T14:03:01;9.60;96.70
15900;DHT22;8048;50.644;6.184;2024-02-21T14:05:27;9.60;96.30
15900;DHT22;8048;50.644;6.184;2024-02-21T14:07:52;9.60;95.80
15900;DHT22;8048;50.644;6.184;2024-02-21T14:10:20;9.60;95.70
15900;DHT22;8048;50.644;6.184;2024-02-21T14:12:46;9.60;95.80
15900;DHT22;8048;50.644;6.184;2024-02-21T14:15:13;9.60;95.70
15900;DHT22;8048;50.644;6.184;2024-02-21T14:17:39;9.60;95.10
15900;DHT22;8048;50.644;6.184;2024-02-21T14:20:06;9.50;95.10
15900;DHT22;8048;50.644;6.184;2024-02-21T14:22:32;9.50;95.60
15900;DHT22;8048;50.644;6.184;2024-02-21T14:24:58;9.50;95.30
15900;DHT22;8048;50.644;6.184;2024-02-21T14:27:24;9.40;94.60
15900;DHT22;8048;50.644;6.184;2024-02-21T14:29:49;9.30;94.70
15900;DHT22;8048;50.644;6.184;2024-02-21T14:32:15;9.30;94.40
15900;DHT22;8048;50.644;6.184;2024-02-21T14:34:40;9.30;95.40
15900;DHT22;8048;50.644;6.184;2024-02-21T14:37:06;9.30;95.30
15900;DHT22;8048;50.644;6.184;2024-02-21T14:39:32;9.30;95.00
15900;DHT22;8048;50.644;6.184;2024-02-21T14:42:00;9.30;95.40
15900;DHT22;8048;50.644;6.184;2024-02-21T14:44:25;9.30;95.10
15900;DHT22;8048;50.644;6.184;2024-02-21T14:46:51;9.30;94.90
15900;DHT22;8048;50.644;6.184;2024-02-21T14:49:17;9.30;94.80
15900;DHT22;8048;50.644;6.184;2024-02-21T14:51:44;9.20;94.50
15900;DHT22;8048;50.644;6.184;2024-02-21T14:54:10;9.20;94.60
15900;DHT22;8048;50.644;6.184;2024-02-21T14:56:36;9.20;95.00
15900;DHT22;8048;50.644;6.184;2024-02-21T14:59:01;9.20;94.60
15900;DHT22;8048;50.644;6.184;2024-02-21T15:01:27;9.20;94.20
15900;DHT22;8048;50.644;6.184;2024-02-21T15:03:53;9.20;94.10
15900;DHT22;8048;50.644;6.184;2024-02-21T15:06:18;9.10;94.50
15900;DHT22;8048;50.644;6.184;2024-02-21T15:08:44;9.10;94.60
15900;DHT22;8048;50.644;6.184;2024-02-21T15:11:09;8.90;95.10
15900;DHT22;8048;50.644;6.184;2024-02-21T15:13:35;8.90;94.70
15900;DHT22;8048;50.644;6.184;2024-02-21T15:16:02;8.90;94.30
15900;DHT22;8048;50.644;6.184;2024-02-21T15:18:28;8.90;94.40
15900;DHT22;8048;50.644;6.184;2024-02-21T15:20:55;8.80;94.50
15900;DHT22;8048;50.644;6.184;2024-02-21T15:23:20;8.80;94.90
15900;DHT22;8048;50.644;6.184;2024-02-21T15:25:46;8.70;94.70
15900;DHT22;8048;50.644;6.184;2024-02-21T15:28:11;8.70;94.60
15900;DHT22;8048;50.644;6.184;2024-02-21T15:30:38;8.70;95.40
15900;DHT22;8048;50.644;6.184;2024-02-21T15:33:03;8.70;95.20
15900;DHT22;8048;50.644;6.184;2024-02-21T15:35:29;8.70;94.90
15900;DHT22;8048;50.644;6.184;2024-02-21T15:37:56;8.70;95.20
15900;DHT22;8048;50.644;6.184;2024-02-21T15:40:23;8.60;95.60
15900;DHT22;8048;50.644;6.184;2024-02-21T15:42:49;8.60;95.40
15900;DHT22;8048;50.644;6.184;2024-02-21T15:45:15;8.60;95.20
15900;DHT22;8048;50.644;6.184;2024-02-21T15:47:41;8.60;95.70
15900;DHT22;8048;50.644;6.184;2024-02-21T15:50:08;8.50;95.80
15900;DHT22;8048;50.644;6.184;2024-02-21T15:52:35;8.50;95.70
15900;DHT22;8048;50.644;6.184;2024-02-21T15:55:01;8.50;96.00
15900;DHT22;8048;50.644;6.184;2024-02-21T15:57:27;8.40;95.30
15900;DHT22;8048;50.644;6.184;2024-02-21T15:59:52;8.50;95.90